createdAt,value
2022-11-01T04:10:11.399Z,11.10
2022-11-01T04:12:39.823Z,11.00
2022-11-01T04:15:26.427Z,11.00
2022-11-01T04:18:22.391Z,11.00
2022-11-01T04:20:50.980Z,11.00
2022-11-01T04:23:19.611Z,11.00
2022-11-01T04:25:49.340Z,11.00
2022-11-01T04:28:17.601Z,11.00
2022-11-01T04:30:46.214Z,11.00
2022-11-01T04:33:14.508Z,11.00
2022-11-01T04:35:42.725Z,10.90
2022-11-01T04:38:12.168Z,11.00
2022-11-01T04:40:40.843Z,11.00
2022-11-01T04:43:11.300Z,11.00
2022-11-01T04:45:39.547Z,11.00
2022-11-01T04:48:12.632Z,11.00
2022-11-01T04:50:42.176Z,11.00
2022-11-01T04:53:11.163Z,11.00
2022-11-01T04:55:39.385Z,11.00
2022-11-01T04:58:08.710Z,11.00
2022-11-01T05:00:38.864Z,11.00
2022-11-01T05:03:08.857Z,11.00
2022-11-01T05:05:38.025Z,11.00
2022-11-01T05:08:08.131Z,11.00
2022-11-01T05:10:38.354Z,11.00
2022-11-01T05:13:07.239Z,11.00
2022-11-01T05:15:39.971Z,11.00
2022-11-01T05:18:12.144Z,11.00
2022-11-01T05:20:40.388Z,11.00
2022-11-01T05:23:08.632Z,11.00
2022-11-01T05:25:38.304Z,11.00
2022-11-01T05:28:08.794Z,11.00
2022-11-01T05:30:39.269Z,11.10
2022-11-01T05:33:09.093Z,11.00
2022-11-01T05:35:38.000Z,11.00
2022-11-01T05:38:06.567Z,11.00
2022-11-01T05:40:35.325Z,11.00
2022-11-01T05:43:03.940Z,11.00
2022-11-01T05:45:32.646Z,11.00
2022-11-01T05:48:05.439Z,11.00
2022-11-01T05:50:33.964Z,11.00
2022-11-01T05:53:07.185Z,11.00
2022-11-01T05:55:36.061Z,11.00
2022-11-01T05:58:04.356Z,11.00
2022-11-01T06:00:33.122Z,11.00
2022-11-01T06:03:02.201Z,11.00
2022-11-01T06:05:33.114Z,10.90
2022-11-01T06:08:03.127Z,10.90
2022-11-01T06:10:31.684Z,11.00
2022-11-01T06:13:00.749Z,10.90
2022-11-01T06:15:29.244Z,10.90
2022-11-01T06:17:58.627Z,10.90
2022-11-01T06:20:27.247Z,10.90
2022-11-01T06:22:57.071Z,10.90
2022-11-01T06:25:25.379Z,10.90
2022-11-01T06:27:54.614Z,10.90
2022-11-01T06:30:23.107Z,11.00
2022-11-01T06:32:51.371Z,11.00
2022-11-01T06:35:19.625Z,11.00
2022-11-01T06:37:47.969Z,11.00
2022-11-01T06:40:17.701Z,10.90
2022-11-01T06:42:46.993Z,10.90
2022-11-01T06:45:17.656Z,11.00
2022-11-01T06:47:50.580Z,11.00
2022-11-01T06:50:19.201Z,11.00
2022-11-01T06:52:47.700Z,11.00
2022-11-01T06:55:18.106Z,11.00
2022-11-01T06:57:56.254Z,11.00
2022-11-01T07:00:25.297Z,11.10
2022-11-01T07:02:59.861Z,11.10
2022-11-01T07:05:34.414Z,11.10
2022-11-01T07:08:07.136Z,11.10
2022-11-01T07:10:41.230Z,11.10
2022-11-01T07:13:12.086Z,11.10
2022-11-01T07:15:41.407Z,11.10
2022-11-01T07:18:10.126Z,11.10
2022-11-01T07:20:43.939Z,11.10
2022-11-01T07:23:15.639Z,11.10
2022-11-01T07:25:45.757Z,11.10
2022-11-01T07:28:14.270Z,11.20
2022-11-01T07:30:48.372Z,11.20
2022-11-01T07:33:18.634Z,11.20
2022-11-01T07:35:47.408Z,11.30
2022-11-01T07:38:17.083Z,11.30
2022-11-01T07:40:49.760Z,11.30
2022-11-01T07:43:19.100Z,11.20
2022-11-01T07:45:48.225Z,11.20
2022-11-01T07:48:19.347Z,11.20
2022-11-01T07:50:48.010Z,11.20
2022-11-01T07:53:18.249Z,11.30
2022-11-01T07:55:48.208Z,11.40
2022-11-01T07:58:17.737Z,11.50
2022-11-01T08:00:46.774Z,11.50
2022-11-01T08:03:16.977Z,11.50
2022-11-01T08:05:45.987Z,11.40
2022-11-01T08:08:14.986Z,11.40
2022-11-01T08:10:43.578Z,11.40
2022-11-01T08:13:17.570Z,11.40
2022-11-01T08:15:46.084Z,11.40
2022-11-01T08:18:14.480Z,11.50
2022-11-01T08:20:43.650Z,11.50
2022-11-01T08:23:12.870Z,11.60
2022-11-01T08:25:41.596Z,11.70
2022-11-01T08:28:12.837Z,11.60
2022-11-01T08:30:43.834Z,11.60
2022-11-01T08:33:12.587Z,11.70
2022-11-01T08:35:42.648Z,11.80
2022-11-01T08:38:14.891Z,11.70
2022-11-01T08:40:43.229Z,11.70
2022-11-01T08:43:11.494Z,11.80
2022-11-01T08:45:40.403Z,11.80
2022-11-01T08:48:11.061Z,11.70
2022-11-01T08:50:39.897Z,11.80
2022-11-01T08:53:10.905Z,11.70
2022-11-01T08:55:39.558Z,11.70
2022-11-01T08:58:14.439Z,11.70
2022-11-01T09:00:42.996Z,11.60
2022-11-01T09:03:12.749Z,11.70
2022-11-01T09:05:41.285Z,11.70
2022-11-01T09:08:11.702Z,11.70
2022-11-01T09:10:40.113Z,11.70
2022-11-01T09:13:08.609Z,11.80
2022-11-01T09:15:37.131Z,11.80
2022-11-01T09:18:09.340Z,11.90
2022-11-01T09:20:39.451Z,11.80
2022-11-01T09:23:07.971Z,11.80
2022-11-01T09:25:37.830Z,11.80
2022-11-01T09:28:06.671Z,11.90
2022-11-01T09:30:36.967Z,11.90
2022-11-01T09:33:08.417Z,11.90
2022-11-01T09:35:38.993Z,11.90
2022-11-01T09:38:08.145Z,11.90
2022-11-01T09:40:45.571Z,12.00
2022-11-01T09:43:21.759Z,12.10
2022-11-01T09:45:52.620Z,12.00
2022-11-01T09:48:22.073Z,12.10
2022-11-01T09:50:52.175Z,12.10
2022-11-01T09:53:24.732Z,12.10
2022-11-01T09:55:59.377Z,12.20
2022-11-01T09:58:38.834Z,12.20
2022-11-01T10:01:20.954Z,12.20
2022-11-01T10:04:01.932Z,12.30
2022-11-01T10:06:39.275Z,12.30
2022-11-01T10:09:18.524Z,12.20
2022-11-01T10:12:10.747Z,12.40
2022-11-01T10:14:53.372Z,12.50
2022-11-01T10:17:46.021Z,12.60
2022-11-01T10:20:22.850Z,12.60
2022-11-01T10:22:53.062Z,12.60
2022-11-01T10:25:27.414Z,12.60
2022-11-01T10:28:05.446Z,12.70
2022-11-01T10:30:40.955Z,12.70
2022-11-01T10:33:25.900Z,12.70
2022-11-01T10:35:58.038Z,12.70
2022-11-01T10:39:29.974Z,12.70
2022-11-01T10:41:37.193Z,12.70
2022-11-01T10:44:08.940Z,12.70
2022-11-01T10:46:41.718Z,12.70
2022-11-01T10:49:24.427Z,12.60
2022-11-01T10:51:55.927Z,12.70
2022-11-01T10:54:29.493Z,12.70
2022-11-01T10:57:02.866Z,12.70
2022-11-01T10:59:38.189Z,12.70
2022-11-01T11:02:15.412Z,12.70
2022-11-01T11:04:44.226Z,12.70
2022-11-01T11:07:17.524Z,12.70
2022-11-01T11:09:51.456Z,12.50
2022-11-01T11:12:22.248Z,12.50
2022-11-01T11:14:54.746Z,12.40
2022-11-01T11:17:26.319Z,12.40
2022-11-01T11:19:54.963Z,12.30
2022-11-01T11:22:24.348Z,12.30
2022-11-01T11:24:59.004Z,12.40
2022-11-01T11:27:30.218Z,12.30
2022-11-01T11:30:01.178Z,12.40
2022-11-01T11:32:31.918Z,12.40
2022-11-01T11:35:02.798Z,12.50
2022-11-01T11:37:35.207Z,12.50
2022-11-01T11:40:24.414Z,12.50
2022-11-01T11:42:54.402Z,12.50
2022-11-01T11:45:29.512Z,12.60
2022-11-01T11:48:15.551Z,12.50
2022-11-01T11:50:46.805Z,12.50
2022-11-01T11:53:21.117Z,12.50
2022-11-01T11:55:55.450Z,12.40
2022-11-01T11:58:28.965Z,12.30
2022-11-01T12:01:03.376Z,12.30
2022-11-01T12:03:38.158Z,12.20
2022-11-01T12:06:09.844Z,12.10
2022-11-01T12:08:49.928Z,12.10
2022-11-01T12:11:20.218Z,12.20
2022-11-01T12:14:05.101Z,12.10
2022-11-01T12:16:41.622Z,12.10
2022-11-01T12:19:25.360Z,12.10
2022-11-01T12:21:58.518Z,12.10
2022-11-01T12:24:29.598Z,12.20
2022-11-01T12:27:03.943Z,12.20
2022-11-01T12:29:36.914Z,12.20
2022-11-01T12:32:15.671Z,12.10
2022-11-01T12:34:48.857Z,12.20
2022-11-01T12:37:27.505Z,12.10
2022-11-01T12:40:02.897Z,12.10
2022-11-01T12:42:42.079Z,12.10
2022-11-01T12:45:22.979Z,12.10
2022-11-01T12:47:58.778Z,12.00
2022-11-01T12:50:35.177Z,12.00
2022-11-01T12:53:09.643Z,12.00
2022-11-01T12:55:44.391Z,12.00
2022-11-01T12:58:16.489Z,12.20
2022-11-01T13:01:01.828Z,12.10
2022-11-01T13:03:48.890Z,12.10
2022-11-01T13:06:41.383Z,12.00
2022-11-01T13:09:16.531Z,12.00
2022-11-01T13:11:52.826Z,12.00
2022-11-01T13:14:43.302Z,12.00
2022-11-01T13:17:22.808Z,12.00
2022-11-01T13:20:00.297Z,12.00
2022-11-01T13:22:41.966Z,12.00
2022-11-01T13:25:22.303Z,12.00
2022-11-01T13:28:07.234Z,12.00
2022-11-01T13:30:48.287Z,12.00
2022-11-01T13:33:22.843Z,12.00
2022-11-01T13:35:58.899Z,12.00
2022-11-01T13:38:39.411Z,12.00
2022-11-01T13:41:19.898Z,12.00
2022-11-01T13:43:53.110Z,12.00
2022-11-01T13:46:49.242Z,11.90
2022-11-01T13:49:58.535Z,11.90
2022-11-01T13:52:30.842Z,11.80
2022-11-01T13:55:07.375Z,11.80
2022-11-01T13:57:35.901Z,11.80
2022-11-01T14:00:09.598Z,11.80
2022-11-01T14:02:54.608Z,11.80
2022-11-01T14:05:23.281Z,11.60
2022-11-01T14:08:15.270Z,11.70
2022-11-01T14:10:49.208Z,11.70
2022-11-01T14:13:19.395Z,11.60
2022-11-01T14:16:25.498Z,11.60
2022-11-01T14:19:21.623Z,11.60
2022-11-01T14:22:00.440Z,11.50
2022-11-01T14:24:35.220Z,11.50
2022-11-01T14:27:22.823Z,11.40
2022-11-01T14:29:55.305Z,11.40
2022-11-01T14:32:26.340Z,11.40
2022-11-01T14:35:33.686Z,11.40
2022-11-01T14:38:06.633Z,11.50
2022-11-01T14:40:37.797Z,11.40
2022-11-01T14:43:12.404Z,11.40
2022-11-01T14:45:44.640Z,11.40
2022-11-01T14:48:18.237Z,11.30
2022-11-01T14:51:07.814Z,11.40
2022-11-01T14:53:40.132Z,11.30
2022-11-01T14:56:16.265Z,11.30
2022-11-01T14:58:45.423Z,11.30
2022-11-01T15:01:15.648Z,11.30
2022-11-01T15:03:53.956Z,11.30
2022-11-01T15:06:27.480Z,11.20
2022-11-01T15:08:58.750Z,11.20
2022-11-01T15:11:29.359Z,11.20
2022-11-01T15:13:58.507Z,11.20
2022-11-01T15:16:28.880Z,11.10
2022-11-01T15:19:00.789Z,11.10
2022-11-01T15:21:31.635Z,11.10
2022-11-01T15:24:02.827Z,11.10
2022-11-01T15:26:33.645Z,11.10
2022-11-01T15:29:04.959Z,11.10
2022-11-01T15:31:35.891Z,11.10
2022-11-01T15:34:06.526Z,11.10
2022-11-01T15:36:38.354Z,11.10
2022-11-01T15:39:21.255Z,11.10
2022-11-01T15:41:50.989Z,11.10
2022-11-01T15:44:25.106Z,11.10
2022-11-01T15:46:56.646Z,11.10
2022-11-01T15:49:30.825Z,11.10
2022-11-01T15:52:05.616Z,11.10
2022-11-01T15:54:45.382Z,11.10
2022-11-01T15:57:22.073Z,11.10
2022-11-01T15:59:58.144Z,11.10
2022-11-01T16:02:35.440Z,11.10
2022-11-01T16:05:04.538Z,11.10
2022-11-01T16:07:35.525Z,11.10
2022-11-01T16:10:05.819Z,11.20
2022-11-01T16:12:38.919Z,11.20
2022-11-01T16:15:22.967Z,11.20
2022-11-01T16:17:55.767Z,11.20
2022-11-01T16:20:33.312Z,11.30
2022-11-01T16:23:07.981Z,11.30
2022-11-01T16:25:38.571Z,11.30
2022-11-01T16:28:29.916Z,11.30
2022-11-01T16:31:01.365Z,11.20
2022-11-01T16:33:45.459Z,11.20
2022-11-01T16:36:35.041Z,11.20
2022-11-01T16:39:28.371Z,11.30
2022-11-01T16:41:57.556Z,11.30
2022-11-01T16:44:26.166Z,11.30
2022-11-01T16:46:55.452Z,11.30
2022-11-01T16:49:25.479Z,11.30
2022-11-01T16:51:56.850Z,11.30
2022-11-01T16:54:27.026Z,11.30
2022-11-01T16:56:58.539Z,11.30
2022-11-01T16:59:39.005Z,11.30
2022-11-01T17:02:17.815Z,11.30
2022-11-01T17:04:48.674Z,11.30
2022-11-01T17:07:17.726Z,11.30
2022-11-01T17:09:47.951Z,11.30
2022-11-01T17:12:16.768Z,11.30
2022-11-01T17:14:54.921Z,11.30
2022-11-01T17:17:27.518Z,11.30
2022-11-01T17:20:02.030Z,11.30
2022-11-01T17:22:35.480Z,11.30
2022-11-01T17:25:08.506Z,11.20
2022-11-01T17:27:37.122Z,11.20
2022-11-01T17:30:06.083Z,11.20
2022-11-01T17:32:36.314Z,11.20
2022-11-01T17:35:07.364Z,11.20
2022-11-01T17:37:36.992Z,11.20
2022-11-01T17:40:17.859Z,11.20
2022-11-01T17:42:46.786Z,11.20
2022-11-01T17:45:17.859Z,11.20
2022-11-01T17:47:46.880Z,11.20
2022-11-01T17:50:17.255Z,11.30
2022-11-01T17:52:47.412Z,11.30
2022-11-01T17:55:18.565Z,11.30
2022-11-01T17:57:49.313Z,11.30
2022-11-01T18:00:19.440Z,11.40
2022-11-01T18:03:14.862Z,11.40
2022-11-01T18:05:51.737Z,11.30
2022-11-01T18:08:30.137Z,11.30
2022-11-01T18:11:17.002Z,11.30
2022-11-01T18:14:03.984Z,11.30
2022-11-01T18:16:46.259Z,11.30
2022-11-01T18:19:36.523Z,11.30
2022-11-01T18:22:18.766Z,11.40
2022-11-01T18:24:58.222Z,11.30
2022-11-01T18:27:51.458Z,11.30
2022-11-01T18:30:38.809Z,11.30
2022-11-01T18:33:16.443Z,11.30
2022-11-01T18:36:06.521Z,11.20
2022-11-01T18:38:40.706Z,11.30
2022-11-01T18:41:16.808Z,11.40
2022-11-01T18:43:48.239Z,11.30
2022-11-01T18:46:25.569Z,11.30
2022-11-01T18:49:23.287Z,11.30
2022-11-01T18:51:55.397Z,11.30
2022-11-01T18:54:30.238Z,11.40
2022-11-01T18:57:16.399Z,11.40
2022-11-01T18:59:49.647Z,11.40
2022-11-01T19:02:32.433Z,11.40
2022-11-01T19:05:13.589Z,11.40
2022-11-01T19:08:09.605Z,11.40
2022-11-01T19:10:32.180Z,11.40
2022-11-01T19:13:00.995Z,11.40
2022-11-01T19:15:33.152Z,11.40
2022-11-01T19:18:08.260Z,11.40
2022-11-01T19:20:46.255Z,11.40
2022-11-01T19:23:19.753Z,11.40
2022-11-01T19:25:51.072Z,11.40
2022-11-01T19:28:29.200Z,11.40
2022-11-01T19:31:07.693Z,11.40
2022-11-01T19:33:41.356Z,11.50
2022-11-01T19:36:16.930Z,11.50
2022-11-01T19:38:49.257Z,11.50
2022-11-01T19:41:31.964Z,11.40
2022-11-01T19:44:03.375Z,11.40
2022-11-01T19:46:55.210Z,11.40
2022-11-01T19:49:38.853Z,11.30
2022-11-01T19:52:27.301Z,11.30
2022-11-01T19:54:56.374Z,11.30
2022-11-01T19:57:33.555Z,11.30
2022-11-01T20:00:19.760Z,11.30
2022-11-01T20:02:51.690Z,11.30
2022-11-01T20:05:33.369Z,11.30
2022-11-01T20:08:17.209Z,11.30
2022-11-01T20:10:47.003Z,11.30
2022-11-01T20:13:15.582Z,11.20
2022-11-01T20:15:44.417Z,11.20
2022-11-01T20:18:20.806Z,11.20
2022-11-01T20:20:54.127Z,11.20
2022-11-01T20:23:26.955Z,11.20
2022-11-01T20:25:56.395Z,11.20
2022-11-01T20:28:24.990Z,11.10
2022-11-01T20:30:53.684Z,11.00
2022-11-01T20:33:24.966Z,11.00
2022-11-01T20:35:53.937Z,11.00
2022-11-01T20:38:22.387Z,11.00
2022-11-01T20:40:51.007Z,11.00
2022-11-01T20:43:24.727Z,11.00
2022-11-01T20:45:53.424Z,11.00
2022-11-01T20:48:23.461Z,11.00
2022-11-01T20:50:52.226Z,11.00
2022-11-01T20:53:21.543Z,11.00
2022-11-01T20:55:55.620Z,11.00
2022-11-01T20:58:25.740Z,11.00
2022-11-01T21:00:55.118Z,11.00
2022-11-01T21:03:27.664Z,11.00
2022-11-01T21:05:56.402Z,11.00
2022-11-01T21:08:26.685Z,11.00
2022-11-01T21:10:57.669Z,11.00
2022-11-01T21:13:28.493Z,11.00
2022-11-01T21:15:58.752Z,11.00
2022-11-01T21:18:41.876Z,11.00
2022-11-01T21:21:46.992Z,11.00
2022-11-01T21:24:41.452Z,11.00
2022-11-01T21:27:24.725Z,11.00
2022-11-01T21:29:55.802Z,11.00
2022-11-01T21:32:32.870Z,11.00
2022-11-01T21:35:35.427Z,11.00
2022-11-01T21:38:26.358Z,11.00
2022-11-01T21:40:55.007Z,11.00
2022-11-01T21:43:31.044Z,11.10
2022-11-01T21:45:59.597Z,11.00
2022-11-01T21:48:31.387Z,11.00
2022-11-01T21:51:01.907Z,11.10
2022-11-01T21:53:30.606Z,11.10
2022-11-01T21:55:59.023Z,11.10
2022-11-01T21:58:29.880Z,11.00
2022-11-01T22:01:00.653Z,11.00
2022-11-01T22:03:29.235Z,11.10
2022-11-01T22:05:57.564Z,11.00
2022-11-01T22:08:27.492Z,11.10
2022-11-01T22:10:55.846Z,11.00
2022-11-01T22:13:24.293Z,11.00
2022-11-01T22:15:52.755Z,11.00
2022-11-01T22:18:24.875Z,11.00
2022-11-01T22:20:53.443Z,11.10
2022-11-01T22:23:22.038Z,11.00
2022-11-01T22:25:52.027Z,11.00
2022-11-01T22:28:22.772Z,11.10
2022-11-01T22:30:51.430Z,11.10
2022-11-01T22:33:20.489Z,11.10
2022-11-01T22:35:49.108Z,11.00
2022-11-01T22:38:20.371Z,11.10
2022-11-01T22:40:59.595Z,11.10
2022-11-01T22:43:32.497Z,11.10
2022-11-01T22:46:01.230Z,11.10
2022-11-01T22:48:34.439Z,11.00
2022-11-01T22:51:04.246Z,11.00
2022-11-01T22:53:33.683Z,11.00
2022-11-01T22:56:03.600Z,11.00
2022-11-01T22:58:36.179Z,11.00
2022-11-01T23:01:19.566Z,11.00
